Time;durP1;ratioP1;P1;durP2;ratioP2;P2;SDS_P1;SDS_P2;PMS_P1;PMS_P2;Temp;Humidity;BMP_temperature;BMP_pressure;BME280_temperature;BME280_humidity;BME280_pressure;Samples;Min_cycle;Max_cycle;Signal;HPM_P1;HPM_P2
2022/07/23 06:17:47;;;;;;;2.42;0.30;;;20.10;65.90;;;;;;4987746;23;20386;-68
2022/07/23 06:20:12;;;;;;;2.00;0.47;;;20.10;66.00;;;;;;4850058;29;20057;-70
2022/07/23 06:22:38;;;;;;;3.25;0.30;;;20.10;65.80;;;;;;4845502;29;20431;-70
2022/07/23 06:25:05;;;;;;;2.08;0.30;;;20.10;65.70;;;;;;4830169;29;20103;-70
2022/07/23 06:27:31;;;;;;;3.30;0.55;;;20.10;65.80;;;;;;4829392;29;20086;-70
2022/07/23 06:29:56;;;;;;;2.20;0.30;;;20.10;65.50;;;;;;4843861;29;20496;-70
2022/07/23 06:32:22;;;;;;;2.35;0.50;;;20.10;65.40;;;;;;4834035;29;20082;-70
2022/07/23 06:34:48;;;;;;;1.30;0.47;;;20.10;65.40;;;;;;4844557;29;20060;-70
2022/07/23 06:37:13;;;;;;;4.13;0.35;;;20.10;65.30;;;;;;4838055;29;20109;-71
2022/07/23 06:39:39;;;;;;;2.38;0.20;;;20.10;65.10;;;;;;4827982;29;20528;-70
2022/07/23 06:42:05;;;;;;;1.23;0.25;;;20.10;65.00;;;;;;4843837;29;20064;-70
2022/07/23 06:44:31;;;;;;;1.88;0.30;;;20.20;65.00;;;;;;4842373;29;20096;-71
2022/07/23 06:46:56;;;;;;;0.98;0.20;;;20.10;64.90;;;;;;4837649;29;20522;-71
2022/07/23 06:49:22;;;;;;;4.15;0.30;;;20.20;64.90;;;;;;4845878;29;20069;-71
2022/07/23 06:51:48;;;;;;;1.35;0.30;;;20.20;64.80;;;;;;4845743;29;20085;-71
2022/07/23 06:54:13;;;;;;;1.08;0.20;;;20.20;64.70;;;;;;4845269;29;20046;-71
2022/07/23 06:56:39;;;;;;;2.20;0.50;;;20.10;64.50;;;;;;4844736;29;20125;-71
2022/07/23 06:59:06;;;;;;;2.45;0.22;;;20.20;64.30;;;;;;4845191;29;20057;-80
2022/07/23 07:01:32;;;;;;;1.52;0.20;;;20.20;64.40;;;;;;4845328;29;20085;-73
2022/07/23 07:03:57;;;;;;;0.80;0.20;;;20.10;64.40;;;;;;4845527;29;20088;-71
2022/07/23 07:06:23;;;;;;;0.47;0.20;;;20.10;64.20;;;;;;4845147;29;20050;-72
2022/07/23 07:08:49;;;;;;;1.48;0.20;;;20.10;64.10;;;;;;4844190;29;20061;-76
2022/07/23 07:11:15;;;;;;;3.45;0.55;;;20.10;64.00;;;;;;4845884;29;20377;-76
2022/07/23 07:13:41;;;;;;;4.85;0.50;;;20.10;64.00;;;;;;4845237;29;20061;-73
2022/07/23 07:16:07;;;;;;;8.60;0.60;;;20.10;64.10;;;;;;4844557;29;20050;-73
2022/07/23 07:18:32;;;;;;;6.15;0.47;;;20.10;64.30;;;;;;4855059;29;20524;-74
2022/07/23 07:20:58;;;;;;;2.22;0.50;;;20.10;64.50;;;;;;4862623;29;20057;-74
2022/07/23 07:23:24;;;;;;;3.40;0.38;;;20.20;64.70;;;;;;4862643;29;20149;-74
2022/07/23 07:25:50;;;;;;;1.98;0.38;;;20.20;64.90;;;;;;4862595;29;20053;-76
2022/07/23 07:28:15;;;;;;;9.55;0.60;;;20.20;64.70;;;;;;4846199;29;20062;-77
2022/07/23 07:30:41;;;;;;;11.02;0.60;;;20.30;64.40;;;;;;4842923;29;20053;-74
2022/07/23 07:33:07;;;;;;;6.95;0.60;;;20.30;64.20;;;;;;4840368;29;20149;-78
2022/07/23 07:35:33;;;;;;;3.75;0.40;;;20.30;64.10;;;;;;4834179;29;20482;-76
2022/07/23 07:37:59;;;;;;;6.57;0.43;;;20.30;64.20;;;;;;4838714;29;20041;-76
2022/07/23 07:40:26;;;;;;;4.35;0.52;;;20.30;64.20;;;;;;4844315;29;20050;-77
2022/07/23 07:42:53;;;;;;;7.90;0.70;;;20.30;64.40;;;;;;4843768;29;20065;-77
2022/07/23 07:45:24;;;;;;;10.38;0.80;;;20.30;64.60;;;;;;4844702;29;20042;-75
2022/07/23 07:47:51;;;;;;;7.07;0.88;;;20.30;64.90;;;;;;4840165;29;20054;-75
2022/07/23 07:50:17;;;;;;;7.35;0.85;;;20.30;65.10;;;;;;4836547;29;20461;-75
2022/07/23 07:52:42;;;;;;;11.10;1.42;;;20.30;65.20;;;;;;4862185;29;20053;-75
2022/07/23 07:55:10;;;;;;;9.05;0.85;;;20.40;65.40;;;;;;4861943;29;20041;-77
2022/07/23 07:57:37;;;;;;;4.95;0.68;;;20.30;65.50;;;;;;4862030;29;20377;-74
2022/07/23 08:00:07;;;;;;;9.52;0.82;;;20.30;65.60;;;;;;4862554;29;20358;-74
2022/07/23 08:02:47;;;;;;;4.30;0.40;;;20.30;65.70;;;;;;4852909;29;20045;-75
2022/07/23 08:05:14;;;;;;;8.80;0.65;;;20.40;65.80;;;;;;4843265;29;20438;-74
2022/07/23 08:07:40;;;;;;;7.32;1.13;;;20.30;65.90;;;;;;4843989;29;20377;-74
2022/07/23 08:10:09;;;;;;;6.95;1.00;;;20.30;65.90;;;;;;4843210;29;20060;-74
2022/07/23 08:12:44;;;;;;;10.70;1.05;;;20.30;66.00;;;;;;4843675;29;20049;-75
2022/07/23 08:15:11;;;;;;;11.88;1.20;;;20.30;66.20;;;;;;4843941;29;20049;-75
2022/07/23 08:17:37;;;;;;;20.17;1.88;;;20.40;66.30;;;;;;4808133;29;1152530;-74
2022/07/23 08:20:05;;;;;;;7.57;0.85;;;20.40;66.10;;;;;;4863006;29;20349;-74
2022/07/23 08:22:42;;;;;;;26.35;2.30;;;20.40;66.00;;;;;;4847435;29;20046;-75
2022/07/23 08:25:09;;;;;;;14.75;1.38;;;20.40;66.10;;;;;;4853111;29;20441;-75
2022/07/23 08:27:34;;;;;;;3.65;0.50;;;20.40;66.00;;;;;;4862526;29;20062;-74
2022/07/23 08:30:00;;;;;;;7.03;0.57;;;20.50;65.20;;;;;;4861521;29;20136;-75
2022/07/23 08:32:26;;;;;;;7.72;0.90;;;20.40;65.00;;;;;;4861086;29;20049;-75
2022/07/23 08:34:52;;;;;;;6.85;0.85;;;20.40;65.10;;;;;;4858291;29;20041;-75
2022/07/23 08:37:17;;;;;;;6.43;0.68;;;20.50;65.20;;;;;;4856206;29;20053;-76
2022/07/23 08:39:43;;;;;;;8.77;0.88;;;20.50;64.90;;;;;;4858694;29;20045;-75
2022/07/23 08:42:09;;;;;;;2.35;0.60;;;20.50;65.00;;;;;;4861717;29;20105;-77
2022/07/23 08:44:35;;;;;;;6.45;0.57;;;20.50;65.00;;;;;;4862733;29;20103;-76
2022/07/23 08:47:01;;;;;;;4.93;0.65;;;20.60;65.20;;;;;;4862005;29;20061;-75
2022/07/23 08:49:29;;;;;;;4.05;0.32;;;20.60;65.20;;;;;;4861653;29;20050;-76
2022/07/23 08:51:55;;;;;;;5.68;0.57;;;20.60;65.40;;;;;;4861235;29;20138;-75
2022/07/23 08:54:22;;;;;;;6.38;0.57;;;20.60;65.40;;;;;;4862109;29;20058;-75
2022/07/23 08:56:48;;;;;;;8.40;0.95;;;20.60;65.40;;;;;;4862499;29;20525;-75
2022/07/23 08:59:14;;;;;;;5.85;1.08;;;20.60;65.20;;;;;;4862218;29;20046;-80
2022/07/23 09:01:40;;;;;;;6.03;0.63;;;20.60;65.20;;;;;;4861599;29;20049;-80
2022/07/23 09:04:06;;;;;;;8.10;0.93;;;20.60;65.20;;;;;;4846116;29;20517;-81
2022/07/23 09:06:31;;;;;;;6.70;0.55;;;20.60;65.40;;;;;;4845377;29;20457;-82
2022/07/23 09:08:57;;;;;;;5.35;0.70;;;20.60;65.40;;;;;;4862053;29;20136;-82
2022/07/23 09:11:23;;;;;;;13.68;1.13;;;20.70;65.50;;;;;;4861235;29;20404;-76
2022/07/23 09:13:52;;;;;;;12.93;1.55;;;20.60;65.70;;;;;;4861040;29;20524;-76
2022/07/23 09:16:27;;;;;;;11.75;1.27;;;20.60;65.80;;;;;;4860894;29;20068;-74
2022/07/23 09:18:58;;;;;;;11.30;0.90;;;20.70;65.80;;;;;;4860769;29;20480;-74
2022/07/23 09:21:28;;;;;;;5.20;0.80;;;20.70;65.70;;;;;;4863515;29;20049;-73
2022/07/23 09:24:01;;;;;;;8.00;1.15;;;20.70;65.60;;;;;;4865452;29;20065;-74
2022/07/23 09:26:33;;;;;;;;;;;20.70;65.50;;;;;;4851137;29;20061;-76
2022/07/23 09:29:05;;;;;;;8.02;0.77;;;20.70;65.40;;;;;;4848862;29;19942;-74
2022/07/23 09:31:51;;;;;;;8.32;0.82;;;20.70;65.30;;;;;;4864415;29;20042;-75
2022/07/23 09:34:40;;;;;;;2.90;0.75;;;20.70;65.30;;;;;;4865108;29;20430;-74
2022/07/23 09:37:17;;;;;;;5.05;0.85;;;20.70;65.30;;;;;;4864921;29;20358;-75
2022/07/23 09:39:45;;;;;;;4.45;0.63;;;20.70;65.40;;;;;;4864999;29;20457;-76
2022/07/23 09:42:19;;;;;;;7.20;0.80;;;20.70;65.50;;;;;;4865213;29;20060;-74
2022/07/23 09:44:47;;;;;;;3.35;0.63;;;20.70;65.60;;;;;;4864690;29;20109;-74
2022/07/23 09:47:13;;;;;;;4.70;0.90;;;20.70;65.60;;;;;;4865453;29;20057;-74
2022/07/23 09:49:39;;;;;;;6.30;0.75;;;20.70;65.70;;;;;;4863699;29;20098;-75
2022/07/23 09:52:05;;;;;;;5.55;0.60;;;20.70;65.70;;;;;;4863819;29;20045;-75
2022/07/23 09:54:37;;;;;;;2.67;0.45;;;20.70;65.70;;;;;;4864758;29;20061;-76
2022/07/23 09:57:05;;;;;;;2.92;0.40;;;20.70;65.80;;;;;;4864918;29;20053;-75
2022/07/23 09:59:34;;;;;;;4.32;0.60;;;20.70;65.80;;;;;;4865184;29;20476;-75
2022/07/23 10:02:01;;;;;;;3.70;0.43;;;20.70;65.80;;;;;;4864309;29;20080;-74
2022/07/23 10:04:31;;;;;;;3.08;0.65;;;20.70;65.90;;;;;;4864172;29;20049;-76
2022/07/23 10:06:59;;;;;;;2.00;0.70;;;20.70;66.00;;;;;;4864450;29;20484;-75
2022/07/23 10:09:33;;;;;;;6.03;0.47;;;20.70;66.00;;;;;;4865469;29;20088;-74
2022/07/23 10:12:08;;;;;;;3.45;0.50;;;20.70;66.10;;;;;;4864949;29;20050;-74
2022/07/23 10:14:35;;;;;;;5.93;0.65;;;20.70;66.10;;;;;;4865279;29;20056;-75
2022/07/23 10:17:03;;;;;;;4.50;0.60;;;20.70;66.20;;;;;;4864236;29;20489;-76
2022/07/23 10:19:30;;;;;;;1.40;0.50;;;20.70;66.10;;;;;;4864468;29;20354;-75
2022/07/23 10:22:08;;;;;;;3.13;0.35;;;20.70;66.20;;;;;;4864392;29;20045;-75
2022/07/23 10:24:37;;;;;;;2.97;0.52;;;20.70;66.20;;;;;;4864748;29;20066;-74
2022/07/23 10:27:30;;;;;;;3.65;0.98;;;20.70;66.20;;;;;;4863815;29;20068;-76
2022/07/23 10:30:24;;;;;;;5.35;0.52;;;20.70;66.10;;;;;;4863905;29;20045;-75
2022/07/23 10:33:10;;;;;;;1.52;0.30;;;20.70;66.20;;;;;;4862522;29;20394;-74
2022/07/23 10:36:01;;;;;;;0.50;0.30;;;20.70;66.20;;;;;;4864664;29;20424;-76
2022/07/23 10:38:32;;;;;;;5.20;0.50;;;20.70;66.10;;;;;;4863476;29;20386;-72
2022/07/23 10:41:02;;;;;;;13.13;1.10;;;20.70;66.30;;;;;;4864003;29;20450;-77
2022/07/23 10:43:29;;;;;;;6.28;0.55;;;20.80;66.40;;;;;;4863252;29;20073;-77
2022/07/23 10:45:55;;;;;;;11.52;1.02;;;20.80;66.50;;;;;;4863838;29;20089;-76
2022/07/23 10:48:25;;;;;;;5.10;0.60;;;20.80;66.60;;;;;;4863460;29;20160;-73
2022/07/23 10:51:09;;;;;;;2.10;0.40;;;20.80;66.40;;;;;;4863404;29;20068;-76
2022/07/23 10:53:55;;;;;;;4.28;0.55;;;20.80;65.50;;;;;;4846314;29;20140;-73
2022/07/23 10:57:03;;;;;;;2.80;0.40;;;20.80;65.50;;;;;;4854864;29;20065;-74
2022/07/23 10:59:29;;;;;;;6.70;0.70;;;20.80;65.80;;;;;;4854688;29;20061;-74
2022/07/23 11:02:20;;;;;;;3.17;0.50;;;20.80;65.90;;;;;;4863408;29;20080;-77
2022/07/23 11:04:52;;;;;;;2.10;0.57;;;20.80;65.70;;;;;;4863579;29;20049;-75
2022/07/23 11:07:18;;;;;;;4.82;0.73;;;20.90;66.00;;;;;;4847541;29;20461;-76
2022/07/23 11:09:46;;;;;;;5.10;1.15;;;20.90;65.80;;;;;;4862987;29;20060;-74
2022/07/23 11:12:20;;;;;;;4.85;1.05;;;20.90;66.00;;;;;;4863512;29;20053;-76
2022/07/23 11:15:13;;;;;;;5.50;0.90;;;20.90;66.00;;;;;;4847674;29;20054;-76
2022/07/23 11:17:51;;;;;;;5.05;0.57;;;20.90;66.50;;;;;;4847638;29;20117;-76
2022/07/23 11:20:19;;;;;;;3.08;0.65;;;20.90;66.70;;;;;;4851802;29;20062;-77
2022/07/23 11:22:45;;;;;;;4.20;0.90;;;20.90;67.00;;;;;;4862830;29;20060;-76
2022/07/23 11:25:13;;;;;;;6.97;0.82;;;20.90;66.90;;;;;;4863344;29;20057;-76
2022/07/23 11:27:45;;;;;;;8.18;0.95;;;20.90;66.40;;;;;;4862948;29;20368;-75
2022/07/23 11:30:39;;;;;;;6.55;0.80;;;20.90;66.70;;;;;;4863684;29;20149;-75
2022/07/23 11:33:07;;;;;;;7.50;0.70;;;21.00;65.90;;;;;;4862016;29;20369;-75
2022/07/23 11:35:34;;;;;;;4.15;0.45;;;21.00;66.00;;;;;;4863465;29;20063;-74
2022/07/23 11:38:07;;;;;;;6.15;1.05;;;21.00;65.90;;;;;;4862804;29;20430;-76
2022/07/23 11:40:34;;;;;;;6.03;0.80;;;21.00;66.80;;;;;;4859915;29;20061;-79
2022/07/23 11:43:03;;;;;;;8.80;0.70;;;21.00;66.20;;;;;;4861134;29;20373;-75
2022/07/23 11:45:37;;;;;;;7.60;1.10;;;21.00;66.50;;;;;;4862647;29;20053;-74
2022/07/23 11:48:03;;;;;;;;;;;21.00;66.90;;;;;;4862912;29;20061;-74
2022/07/23 11:50:29;;;;;;;5.97;0.70;;;21.00;66.80;;;;;;4862714;29;20061;-75
2022/07/23 11:52:55;;;;;;;6.95;1.40;;;21.00;66.90;;;;;;4862752;29;20472;-74
2022/07/23 11:55:21;;;;;;;5.95;0.65;;;21.00;67.00;;;;;;4862770;29;20105;-74
2022/07/23 11:57:47;;;;;;;3.72;0.63;;;21.00;67.10;;;;;;4862943;29;20128;-74
2022/07/23 12:00:16;;;;;;;3.72;0.70;;;21.00;67.10;;;;;;4861767;29;20041;-74
2022/07/23 12:02:45;;;;;;;5.90;1.20;;;21.00;67.20;;;;;;4862645;29;20381;-73
2022/07/23 12:05:24;;;;;;;5.90;0.70;;;21.00;67.30;;;;;;4862167;29;20492;-74
2022/07/23 12:07:53;;;;;;;8.95;1.15;;;21.00;67.30;;;;;;4862731;29;20076;-74
2022/07/23 12:10:21;;;;;;;1.75;0.68;;;21.00;67.30;;;;;;4863122;29;20418;-74
2022/07/23 12:12:53;;;;;;;4.70;0.90;;;21.00;67.20;;;;;;4862218;29;20099;-73
2022/07/23 12:15:22;;;;;;;5.43;0.95;;;21.00;67.40;;;;;;4863218;29;20454;-73
2022/07/23 12:17:49;;;;;;;8.05;0.85;;;21.00;67.20;;;;;;4860572;29;20061;-75
2022/07/23 12:20:40;;;;;;;4.78;0.80;;;21.10;67.20;;;;;;4862545;29;20053;-76
2022/07/23 12:23:07;;;;;;;3.42;1.00;;;21.10;66.70;;;;;;4859507;29;20053;-75
2022/07/23 12:25:36;;;;;;;7.60;0.90;;;21.10;66.20;;;;;;4862243;29;20053;-74
2022/07/23 12:28:11;;;;;;;5.78;0.80;;;21.10;65.70;;;;;;4846147;29;20124;-75
2022/07/23 12:30:46;;;;;;;2.50;0.55;;;21.10;65.70;;;;;;4862685;29;20049;-75
2022/07/23 12:33:22;;;;;;;1.13;0.50;;;21.10;65.60;;;;;;4862065;29;20057;-74
2022/07/23 12:35:49;;;;;;;1.30;0.38;;;21.10;65.60;;;;;;4862474;29;20037;-76
2022/07/23 12:38:17;;;;;;;3.03;0.85;;;21.10;65.60;;;;;;4862443;29;20057;-74
2022/07/23 12:40:47;;;;;;;3.30;0.75;;;21.10;65.60;;;;;;4862122;29;20058;-77
2022/07/23 12:43:26;;;;;;;2.35;0.60;;;21.10;65.50;;;;;;4861754;29;20057;-76
2022/07/23 12:46:11;;;;;;;2.22;0.55;;;21.10;65.70;;;;;;4845671;29;20091;-74
2022/07/23 12:48:39;;;;;;;3.90;0.73;;;21.10;65.80;;;;;;4861080;29;20085;-77
2022/07/23 12:51:07;;;;;;;2.55;0.60;;;21.10;66.00;;;;;;4861593;29;20053;-76
2022/07/23 12:53:40;;;;;;;4.80;0.70;;;21.10;66.10;;;;;;4845679;29;20061;-75
2022/07/23 12:56:15;;;;;;;2.77;0.50;;;21.20;66.30;;;;;;4863944;29;20053;-81
2022/07/23 12:58:43;;;;;;;2.85;0.63;;;21.20;66.00;;;;;;4865586;29;20144;-78
2022/07/23 13:01:22;;;;;;;2.47;0.80;;;21.20;66.10;;;;;;4864865;29;20056;-78
2022/07/23 13:04:06;;;;;;;5.50;1.10;;;21.20;66.50;;;;;;4846892;29;20057;-79
2022/07/23 13:06:35;;;;;;;6.03;0.50;;;21.20;66.90;;;;;;4849037;29;20477;-76
2022/07/23 13:09:07;;;;;;;5.78;0.90;;;21.20;67.00;;;;;;4865699;29;20427;-75
2022/07/23 13:11:33;;;;;;;5.35;0.80;;;21.20;66.90;;;;;;4865073;29;20056;-75
2022/07/23 13:14:01;;;;;;;7.28;0.80;;;21.20;66.60;;;;;;4865197;29;20042;-76
2022/07/23 13:16:28;;;;;;;2.47;1.05;;;21.20;66.30;;;;;;4849505;29;20053;-76
2022/07/23 13:18:54;;;;;;;8.27;1.40;;;21.30;66.50;;;;;;4865196;29;20077;-79
2022/07/23 13:21:19;;;;;;;8.50;1.10;;;21.30;66.60;;;;;;4865109;29;20117;-75
2022/07/23 13:23:45;;;;;;;4.78;0.68;;;21.20;66.50;;;;;;4865119;29;20077;-77
2022/07/23 13:26:11;;;;;;;1.00;0.60;;;21.20;66.40;;;;;;4848205;29;20054;-73
2022/07/23 13:28:37;;;;;;;3.28;0.68;;;21.30;66.40;;;;;;4865131;29;20049;-71
2022/07/23 13:31:03;;;;;;;5.78;0.70;;;21.30;66.60;;;;;;4864885;29;20049;-73
2022/07/23 13:33:29;;;;;;;4.30;0.73;;;21.20;66.90;;;;;;4864967;29;20077;-74
2022/07/23 13:35:54;;;;;;;3.38;1.05;;;21.20;67.20;;;;;;4865508;29;20038;-76
2022/07/23 13:38:21;;;;;;;4.07;1.13;;;21.30;67.50;;;;;;4865327;29;20124;-76
2022/07/23 13:40:49;;;;;;;4.75;1.10;;;21.20;67.70;;;;;;4865014;29;20045;-74
2022/07/23 13:43:18;;;;;;;5.55;1.00;;;21.30;68.80;;;;;;4864674;29;20045;-74
2022/07/23 13:45:44;;;;;;;5.43;0.90;;;21.30;68.50;;;;;;4864047;29;20105;-73
2022/07/23 13:48:11;;;;;;;4.95;1.23;;;21.30;68.10;;;;;;4864342;29;20057;-72
2022/07/23 13:50:40;;;;;;;4.00;1.00;;;21.30;67.70;;;;;;4845801;29;20468;-76
2022/07/23 13:53:13;;;;;;;6.88;1.10;;;21.30;67.90;;;;;;4856757;29;20057;-75
2022/07/23 13:55:42;;;;;;;12.18;1.38;;;21.30;68.00;;;;;;4853809;29;20042;-75
2022/07/23 13:58:12;;;;;;;6.72;1.00;;;21.40;67.90;;;;;;4861074;29;20049;-74
2022/07/23 14:00:43;;;;;;;5.47;1.55;;;21.40;68.10;;;;;;4864229;29;20042;-75
2022/07/23 14:03:09;;;;;;;3.17;0.93;;;21.40;69.20;;;;;;4859187;29;20197;-75
2022/07/23 14:05:35;;;;;;;6.55;1.33;;;21.40;69.70;;;;;;4863140;29;20045;-75
2022/07/23 14:08:02;;;;;;;3.03;1.30;;;21.40;69.90;;;;;;4864168;29;20085;-74
2022/07/23 14:10:28;;;;;;;5.95;1.90;;;21.50;69.70;;;;;;4864015;29;20061;-73
2022/07/23 14:12:56;;;;;;;4.75;1.38;;;21.40;69.10;;;;;;4863346;29;20042;-74
2022/07/23 14:15:22;;;;;;;9.05;2.08;;;21.40;68.80;;;;;;4860375;29;20070;-74
2022/07/23 14:17:48;;;;;;;12.35;2.00;;;21.50;68.80;;;;;;4855510;29;20054;-75
2022/07/23 14:20:15;;;;;;;10.77;1.80;;;21.40;68.60;;;;;;4839444;29;20399;-74
2022/07/23 14:22:41;;;;;;;10.00;1.92;;;21.50;68.20;;;;;;4845175;29;20058;-77
2022/07/23 14:25:08;;;;;;;10.48;1.92;;;21.50;68.10;;;;;;4846345;29;20056;-77
2022/07/23 14:27:34;;;;;;;10.57;1.83;;;21.50;68.10;;;;;;4845555;29;20137;-75
2022/07/23 14:30:00;;;;;;;7.15;1.63;;;21.50;68.10;;;;;;4846143;29;20448;-76
2022/07/23 14:32:27;;;;;;;12.45;1.73;;;21.50;68.00;;;;;;4829262;29;20046;-75
2022/07/23 14:34:53;;;;;;;11.32;2.05;;;21.50;67.60;;;;;;4829997;29;20064;-75
2022/07/23 14:37:19;;;;;;;9.13;1.73;;;21.50;67.70;;;;;;4845182;29;20050;-75
2022/07/23 14:39:45;;;;;;;6.82;1.38;;;21.50;68.00;;;;;;4846203;29;20125;-75
2022/07/23 14:42:11;;;;;;;6.45;1.65;;;21.50;68.30;;;;;;4845257;29;20057;-76
2022/07/23 14:44:37;;;;;;;6.90;1.75;;;21.50;68.40;;;;;;4845406;29;20156;-76
2022/07/23 14:47:04;;;;;;;9.65;1.60;;;21.50;68.70;;;;;;4845655;29;20128;-76
2022/07/23 14:49:31;;;;;;;4.68;1.05;;;21.50;68.90;;;;;;4845552;29;20054;-75
2022/07/23 14:51:57;;;;;;;8.88;1.90;;;21.50;68.90;;;;;;4845885;29;20054;-76
2022/07/23 14:54:23;;;;;;;9.23;2.13;;;21.50;69.50;;;;;;4845623;29;20050;-76
2022/07/23 14:56:49;;;;;;;10.13;1.90;;;21.50;69.30;;;;;;4845604;29;20482;-75
2022/07/23 14:59:15;;;;;;;9.10;1.70;;;21.50;69.20;;;;;;4829320;29;20202;-75
2022/07/23 15:01:40;;;;;;;14.30;1.98;;;21.50;69.40;;;;;;4845355;29;20058;-76
2022/07/23 15:04:07;;;;;;;8.48;1.58;;;21.50;69.50;;;;;;4845410;29;20061;-76
2022/07/23 15:06:33;;;;;;;10.05;1.90;;;21.50;69.40;;;;;;4845226;29;20050;-75
2022/07/23 15:08:59;;;;;;;15.93;2.15;;;21.60;69.20;;;;;;4845285;29;20061;-75
2022/07/23 15:11:32;;;;;;;16.55;2.67;;;21.50;69.10;;;;;;4844710;29;20481;-75
2022/07/23 15:13:58;;;;;;;9.98;1.67;;;21.60;69.00;;;;;;4845460;29;20129;-75
2022/07/23 15:16:24;;;;;;;10.73;1.40;;;21.60;69.00;;;;;;4845354;29;20155;-75
2022/07/23 15:18:49;;;;;;;10.68;2.05;;;21.60;68.90;;;;;;4855041;29;20058;-76
2022/07/23 15:21:15;;;;;;;7.93;1.55;;;21.60;68.70;;;;;;4863331;29;20375;-75
2022/07/23 15:23:41;;;;;;;6.07;1.50;;;21.60;68.60;;;;;;4863484;29;20088;-74
2022/07/23 15:26:07;;;;;;;15.10;2.00;;;21.60;68.50;;;;;;4863577;29;20042;-76
2022/07/23 15:28:34;;;;;;;12.68;1.85;;;21.60;68.50;;;;;;4862649;29;20389;-77
2022/07/23 15:31:00;;;;;;;5.70;1.80;;;21.60;68.40;;;;;;4864277;29;20457;-76
2022/07/23 15:33:27;;;;;;;6.60;1.63;;;21.60;68.60;;;;;;4863608;29;20065;-77
2022/07/23 15:35:55;;;;;;;6.25;1.67;;;21.60;68.60;;;;;;4863347;29;20353;-75
2022/07/23 15:38:20;;;;;;;9.75;1.88;;;21.60;68.70;;;;;;4853678;29;20129;-77
2022/07/23 15:40:48;;;;;;;4.07;1.52;;;21.60;68.80;;;;;;4848268;29;20378;-77
2022/07/23 15:43:15;;;;;;;6.18;2.15;;;21.60;69.00;;;;;;4852022;29;20094;-78
2022/07/23 15:45:42;;;;;;;6.13;1.73;;;21.60;69.00;;;;;;4844605;29;20081;-77
2022/07/23 15:48:07;;;;;;;7.07;1.63;;;21.60;69.00;;;;;;4846503;29;20378;-77
2022/07/23 15:50:33;;;;;;;7.47;1.77;;;21.60;69.00;;;;;;4863605;29;20442;-77
2022/07/23 15:52:59;;;;;;;4.63;1.20;;;21.60;69.00;;;;;;4863676;29;20061;-76
2022/07/23 15:55:25;;;;;;;3.30;1.20;;;21.70;69.00;;;;;;4856927;29;20061;-76
2022/07/23 15:57:51;;;;;;;5.18;1.20;;;21.60;68.90;;;;;;4847218;29;20058;-75
2022/07/23 16:00:17;;;;;;;4.57;1.63;;;21.70;69.00;;;;;;4862393;29;20061;-76
2022/07/23 16:02:43;;;;;;;4.97;1.25;;;21.60;68.90;;;;;;4856535;29;20060;-76
2022/07/23 16:05:09;;;;;;;5.40;1.55;;;21.70;68.90;;;;;;4862611;29;20057;-77
2022/07/23 16:07:37;;;;;;;4.80;1.23;;;21.70;68.80;;;;;;4861988;29;20142;-77
2022/07/23 16:10:05;;;;;;;4.22;1.30;;;21.70;68.70;;;;;;4856654;29;20049;-76
2022/07/23 16:12:31;;;;;;;6.05;1.33;;;21.70;68.60;;;;;;4862631;29;20469;-76
2022/07/23 16:14:56;;;;;;;2.75;1.02;;;21.70;68.60;;;;;;4863028;29;20054;-76
2022/07/23 16:17:22;;;;;;;4.18;1.38;;;21.70;68.60;;;;;;4862793;29;20050;-76
2022/07/23 16:19:48;;;;;;;6.55;1.00;;;21.70;68.60;;;;;;4862254;29;20141;-76
2022/07/23 16:22:15;;;;;;;4.28;1.25;;;21.80;68.70;;;;;;4862627;29;20472;-77
2022/07/23 16:24:42;;;;;;;7.22;1.35;;;21.80;68.60;;;;;;4862628;29;20136;-78
2022/07/23 16:27:08;;;;;;;6.35;1.60;;;21.80;68.80;;;;;;4860506;29;20481;-75
2022/07/23 16:29:33;;;;;;;7.88;1.15;;;21.80;68.80;;;;;;4856808;29;20129;-76
2022/07/23 16:31:59;;;;;;;3.50;1.38;;;21.80;69.00;;;;;;4865900;29;20053;-74
2022/07/23 16:34:25;;;;;;;6.65;1.25;;;21.80;69.30;;;;;;4866809;29;20049;-76
2022/07/23 16:36:51;;;;;;;4.65;1.40;;;21.90;69.30;;;;;;4866183;29;20101;-75
2022/07/23 16:39:16;;;;;;;4.35;1.50;;;21.90;69.20;;;;;;4866188;29;20124;-75
2022/07/23 16:41:43;;;;;;;7.53;1.60;;;21.90;68.60;;;;;;4866674;29;20064;-77
2022/07/23 16:44:09;;;;;;;7.32;1.70;;;21.90;68.50;;;;;;4865823;29;20054;-77
2022/07/23 16:46:34;;;;;;;13.38;1.85;;;22.00;68.50;;;;;;4866426;29;20054;-76
2022/07/23 16:49:00;;;;;;;8.85;1.42;;;22.00;68.20;;;;;;4865838;29;20060;-76
2022/07/23 16:51:26;;;;;;;6.72;1.48;;;22.00;68.10;;;;;;4858480;29;20064;-76
2022/07/23 16:53:55;;;;;;;12.88;1.63;;;22.10;68.30;;;;;;4866539;29;20053;-78
2022/07/23 16:56:21;;;;;;;7.40;1.58;;;22.10;68.10;;;;;;4865736;29;20476;-77
2022/07/23 16:58:47;;;;;;;15.57;1.90;;;22.10;67.80;;;;;;4863237;29;20046;-77
2022/07/23 17:01:13;;;;;;;7.22;1.20;;;22.10;67.60;;;;;;4864153;29;20068;-78
2022/07/23 17:03:38;;;;;;;11.70;1.98;;;22.20;67.60;;;;;;4865992;29;20453;-77
2022/07/23 17:06:04;;;;;;;7.47;1.70;;;22.20;67.70;;;;;;4865548;29;20048;-77
2022/07/23 17:08:30;;;;;;;7.18;1.38;;;22.20;67.60;;;;;;4865845;29;20056;-78
2022/07/23 17:10:56;;;;;;;4.80;1.52;;;22.20;67.70;;;;;;4866687;29;20406;-77
2022/07/23 17:13:22;;;;;;;5.05;1.15;;;22.20;68.00;;;;;;4865759;29;20052;-78
2022/07/23 17:15:48;;;;;;;4.80;1.55;;;22.20;68.00;;;;;;4865534;29;20106;-77
2022/07/23 17:18:14;;;;;;;5.00;1.42;;;22.20;68.00;;;;;;4862596;29;20069;-78
2022/07/23 17:20:40;;;;;;;4.53;1.45;;;22.30;68.10;;;;;;4862136;29;20053;-78
2022/07/23 17:23:06;;;;;;;6.05;1.40;;;22.30;68.10;;;;;;4865898;29;20065;-78
2022/07/23 17:25:32;;;;;;;3.38;1.33;;;22.30;68.00;;;;;;4865769;29;20104;-76
2022/07/23 17:27:58;;;;;;;5.78;1.33;;;22.30;68.00;;;;;;4865974;29;20084;-78
2022/07/23 17:30:23;;;;;;;8.07;1.50;;;22.30;67.90;;;;;;4864447;29;20537;-76
2022/07/23 17:32:49;;;;;;;3.88;1.70;;;22.30;67.70;;;;;;4865188;29;20057;-77
2022/07/23 17:35:15;;;;;;;4.22;1.20;;;22.30;67.80;;;;;;4865410;29;20049;-77
2022/07/23 17:37:42;;;;;;;4.75;1.33;;;22.30;67.50;;;;;;4865295;29;20057;-76
2022/07/23 17:40:08;;;;;;;4.97;0.90;;;22.30;67.00;;;;;;4864948;29;20049;-79
2022/07/23 17:42:34;;;;;;;7.60;1.83;;;22.30;67.00;;;;;;4863978;29;20105;-78
2022/07/23 17:45:00;;;;;;;4.95;1.45;;;22.30;66.90;;;;;;4865403;29;20057;-77
2022/07/23 17:47:25;;;;;;;2.75;0.90;;;22.30;67.00;;;;;;4865753;29;20054;-78
2022/07/23 17:49:51;;;;;;;3.97;1.20;;;22.20;67.00;;;;;;4864731;29;20050;-80
2022/07/23 17:52:17;;;;;;;2.65;0.82;;;22.20;67.10;;;;;;4864386;29;20053;-78
2022/07/23 17:54:43;;;;;;;4.43;1.30;;;22.20;67.10;;;;;;4849287;29;20053;-77
2022/07/23 17:57:08;;;;;;;3.00;1.20;;;22.20;67.40;;;;;;4865187;29;20061;-77
2022/07/23 17:59:34;;;;;;;3.38;1.20;;;22.20;67.30;;;;;;4845058;29;20045;-83
2022/07/23 18:02:00;;;;;;;3.67;1.25;;;22.20;66.70;;;;;;4848463;29;20050;-77
2022/07/23 19:39:27;;;;;;;5.82;1.00;;;21.70;66.20;;;;;;4852747;29;20186;-73
2022/07/23 19:41:52;;;;;;;4.45;1.23;;;21.60;66.50;;;;;;4849155;29;20163;-74
2022/07/23 19:44:18;;;;;;;3.25;0.90;;;21.50;66.60;;;;;;4863233;29;20440;-73
2022/07/23 19:46:44;;;;;;;3.45;1.00;;;21.40;66.80;;;;;;4847001;29;20056;-72
2022/07/23 19:49:10;;;;;;;5.07;1.10;;;21.40;67.10;;;;;;4862394;29;20092;-73
2022/07/23 19:51:35;;;;;;;3.33;0.98;;;21.30;67.40;;;;;;4862965;29;20113;-72
2022/07/23 19:54:01;;;;;;;10.95;1.40;;;21.20;67.70;;;;;;4863148;29;20448;-74
2022/07/23 19:56:27;;;;;;;3.15;1.05;;;21.30;67.90;;;;;;4863002;29;20041;-73
2022/07/23 19:58:53;;;;;;;5.43;0.77;;;21.30;67.90;;;;;;4863348;29;20045;-73
2022/07/23 20:01:18;;;;;;;3.80;0.90;;;21.40;68.00;;;;;;4862062;29;20101;-75
2022/07/23 20:03:47;;;;;;;6.88;1.30;;;21.40;67.80;;;;;;4862805;29;20049;-71
2022/07/23 20:06:13;;;;;;;4.68;1.20;;;21.50;67.80;;;;;;4862729;29;20080;-72
2022/07/23 20:08:39;;;;;;;3.60;1.70;;;21.50;67.40;;;;;;4863222;29;20041;-71
2022/07/23 20:11:04;;;;;;;3.20;1.27;;;21.50;67.20;;;;;;4863390;29;20049;-73
2022/07/23 20:13:30;;;;;;;5.55;1.83;;;21.40;67.00;;;;;;4863312;29;20064;-71
2022/07/23 20:15:56;;;;;;;4.45;2.00;;;21.40;67.10;;;;;;4863587;29;20351;-71
2022/07/23 20:18:22;;;;;;;5.05;1.60;;;21.40;67.40;;;;;;4862697;29;20132;-72
2022/07/23 20:20:47;;;;;;;5.80;1.13;;;21.40;67.70;;;;;;4863178;29;20160;-72
2022/07/23 20:23:13;;;;;;;4.28;1.50;;;21.40;67.80;;;;;;4862337;29;20045;-73
2022/07/23 20:25:40;;;;;;;6.57;1.65;;;21.50;68.10;;;;;;4862300;29;20049;-73
2022/07/23 20:28:06;;;;;;;4.50;1.20;;;21.50;68.20;;;;;;4862645;29;20350;-75
2022/07/23 20:30:32;;;;;;;6.75;1.50;;;21.50;68.30;;;;;;4862105;29;20046;-73
2022/07/23 20:32:58;;;;;;;5.90;1.73;;;21.60;69.30;;;;;;4862386;29;20119;-76
2022/07/23 20:35:26;;;;;;;4.70;1.35;;;21.60;69.10;;;;;;4863129;29;20132;-76
2022/07/23 20:37:53;;;;;;;5.88;1.80;;;21.60;69.10;;;;;;4870490;29;20108;-74
2022/07/23 20:40:19;;;;;;;6.10;1.40;;;21.60;69.20;;;;;;4881357;29;20484;-73
2022/07/23 20:42:45;;;;;;;7.85;1.17;;;21.70;69.20;;;;;;4881171;29;20048;-74